createdAt,value
2019-05-21T00:01:14.404Z,15.49
2019-05-21T00:03:46.274Z,15.47
2019-05-21T00:06:18.338Z,15.43
2019-05-21T00:08:50.318Z,15.41
2019-05-21T00:11:22.794Z,15.39
2019-05-21T00:13:54.621Z,15.37
2019-05-21T00:16:26.973Z,15.37
2019-05-21T00:18:59.103Z,15.36
2019-05-21T00:21:31.038Z,15.38
2019-05-21T00:24:02.998Z,15.42
2019-05-21T00:26:34.945Z,15.47
2019-05-21T00:29:42.939Z,15.52
2019-05-21T00:32:51.676Z,15.57
2019-05-21T00:36:00.399Z,15.57
2019-05-21T00:39:08.408Z,15.60
2019-05-21T00:42:03.160Z,15.60
2019-05-21T00:44:40.740Z,15.60
2019-05-21T00:47:13.173Z,15.56
2019-05-21T00:49:44.809Z,15.50
2019-05-21T00:52:16.401Z,15.44
2019-05-21T00:54:48.464Z,15.36
2019-05-21T00:57:20.119Z,15.28
2019-05-21T00:59:52.274Z,15.24
2019-05-21T01:02:24.252Z,15.22
2019-05-21T01:05:00.895Z,15.18
2019-05-21T01:07:30.533Z,15.10
2019-05-21T01:10:02.614Z,15.08
2019-05-21T01:12:34.863Z,15.03
2019-05-21T01:15:08.283Z,14.98
2019-05-21T01:17:40.016Z,14.96
2019-05-21T01:20:12.087Z,14.95
2019-05-21T01:22:43.945Z,15.03
2019-05-21T01:25:16.011Z,15.10
2019-05-21T01:27:48.158Z,15.22
2019-05-21T01:30:20.350Z,15.37
2019-05-21T01:32:52.319Z,15.52
2019-05-21T01:35:24.689Z,15.65
2019-05-21T01:37:56.517Z,15.75
2019-05-21T01:40:28.706Z,15.85
2019-05-21T01:43:03.310Z,15.95
2019-05-21T01:45:35.780Z,15.99
2019-05-21T01:48:07.339Z,16.03
2019-05-21T01:50:39.303Z,16.06
2019-05-21T01:53:11.392Z,16.07
2019-05-21T01:55:43.450Z,16.06
2019-05-21T01:58:15.289Z,16.04
2019-05-21T02:00:47.354Z,16.03
2019-05-21T02:03:19.439Z,16.05
2019-05-21T02:05:51.697Z,16.04
2019-05-21T02:08:23.367Z,16.05
2019-05-21T02:10:55.430Z,16.07
2019-05-21T02:13:27.476Z,16.08
2019-05-21T02:15:59.456Z,16.11
2019-05-21T02:18:31.620Z,16.12
2019-05-21T02:21:03.737Z,16.12
2019-05-21T02:23:37.171Z,16.14
2019-05-21T02:26:09.059Z,16.12
2019-05-21T02:28:41.574Z,16.12
2019-05-21T02:31:13.965Z,16.12
2019-05-21T02:33:45.950Z,16.14
2019-05-21T02:36:17.930Z,16.17
2019-05-21T02:38:49.971Z,16.21
2019-05-21T02:41:22.057Z,16.24
2019-05-21T02:43:54.336Z,16.28
2019-05-21T02:46:26.187Z,16.36
2019-05-21T02:48:58.028Z,16.42
2019-05-21T02:51:30.210Z,16.51
2019-05-21T02:54:01.971Z,16.61
2019-05-21T02:56:33.915Z,16.68
2019-05-21T02:59:06.201Z,16.78
2019-05-21T03:01:39.491Z,16.84
2019-05-21T03:04:11.777Z,16.92
2019-05-21T03:06:43.808Z,16.99
2019-05-21T03:09:15.892Z,17.07
2019-05-21T03:11:47.490Z,17.15
2019-05-21T03:14:19.511Z,17.22
2019-05-21T03:16:52.296Z,17.29
2019-05-21T03:19:24.342Z,17.32
2019-05-21T03:21:56.146Z,17.38
2019-05-21T03:24:28.237Z,17.45
2019-05-21T03:27:00.356Z,17.52
2019-05-21T03:29:32.520Z,17.61
2019-05-21T03:32:04.697Z,17.69
2019-05-21T03:34:37.967Z,17.77
2019-05-21T03:37:09.929Z,17.86
2019-05-21T03:39:41.702Z,17.95
2019-05-21T03:42:13.561Z,18.05
2019-05-21T03:44:59.126Z,18.13
2019-05-21T03:47:19.678Z,18.22
2019-05-21T03:49:51.596Z,18.30
2019-05-21T03:52:23.560Z,18.37
2019-05-21T03:54:55.509Z,18.46
2019-05-21T03:57:28.394Z,18.53
2019-05-21T04:00:00.371Z,18.63
2019-05-21T04:02:32.017Z,18.74
2019-05-21T04:05:04.899Z,18.76
2019-05-21T04:07:36.679Z,18.74
2019-05-21T04:10:15.943Z,18.71
2019-05-21T04:13:06.901Z,18.66
2019-05-21T04:15:58.005Z,18.60
2019-05-21T04:18:31.579Z,18.53
2019-05-21T04:21:03.697Z,18.47
2019-05-21T04:23:35.653Z,18.42
2019-05-21T04:26:07.735Z,18.42
2019-05-21T04:28:39.881Z,18.48
2019-05-21T04:31:11.525Z,18.59
2019-05-21T04:33:43.403Z,18.70
2019-05-21T04:36:15.139Z,18.85
2019-05-21T04:38:47.125Z,19.01
2019-05-21T04:41:19.173Z,19.03
2019-05-21T04:43:50.926Z,19.08
2019-05-21T04:46:22.700Z,19.05
2019-05-21T04:48:54.561Z,19.03
2019-05-21T04:51:26.649Z,18.98
2019-05-21T04:53:58.690Z,18.97
2019-05-21T04:56:30.650Z,18.98
2019-05-21T04:59:02.727Z,19.07
2019-05-21T05:01:34.779Z,19.19
2019-05-21T05:04:07.246Z,19.36
2019-05-21T05:06:39.219Z,19.46
2019-05-21T05:09:11.036Z,19.55
2019-05-21T05:11:43.051Z,19.58
2019-05-21T05:14:14.658Z,19.65
2019-05-21T05:16:46.749Z,19.76
2019-05-21T05:19:18.628Z,19.83
2019-05-21T05:21:50.598Z,19.93
2019-05-21T05:24:22.555Z,20.01
2019-05-21T05:26:54.531Z,20.07
2019-05-21T05:29:26.581Z,20.13
2019-05-21T05:31:58.754Z,20.23
2019-05-21T05:34:30.966Z,20.36
2019-05-21T05:37:02.777Z,20.56
2019-05-21T05:39:34.412Z,20.79
2019-05-21T05:42:06.380Z,21.04
2019-05-21T05:44:38.281Z,21.20
2019-05-21T05:47:11.326Z,21.24
2019-05-21T05:49:44.633Z,21.24
2019-05-21T05:52:16.493Z,21.33
2019-05-21T05:54:48.362Z,21.48
2019-05-21T05:57:20.420Z,21.66
2019-05-21T05:59:52.688Z,21.93
2019-05-21T06:02:24.349Z,22.10
2019-05-21T06:04:56.394Z,22.22
2019-05-21T06:07:27.950Z,22.35
2019-05-21T06:09:59.815Z,22.55
2019-05-21T06:12:31.585Z,22.60
2019-05-21T06:15:03.879Z,22.66
2019-05-21T06:17:35.506Z,22.70
2019-05-21T06:20:08.715Z,22.68
2019-05-21T06:22:41.892Z,22.80
2019-05-21T06:25:14.170Z,22.86
2019-05-21T06:27:46.602Z,22.94
2019-05-21T06:30:18.678Z,23.00
2019-05-21T06:32:50.253Z,23.03
2019-05-21T06:35:22.339Z,22.98
2019-05-21T06:37:54.385Z,22.95
2019-05-21T06:40:26.046Z,22.84
2019-05-21T06:42:57.986Z,22.73
2019-05-21T06:45:29.867Z,22.57
2019-05-21T06:48:01.606Z,22.42
2019-05-21T06:50:37.104Z,22.31
2019-05-21T06:53:06.778Z,22.17
2019-05-21T06:55:38.738Z,22.09
2019-05-21T06:58:10.598Z,22.08
2019-05-21T07:00:42.875Z,22.12
2019-05-21T07:03:14.736Z,22.17
2019-05-21T07:05:58.263Z,22.20
2019-05-21T07:08:33.499Z,22.36
2019-05-21T07:10:53.385Z,22.53
2019-05-21T07:13:25.654Z,22.65
2019-05-21T07:15:57.717Z,22.73
2019-05-21T07:18:29.775Z,22.75
2019-05-21T07:21:01.849Z,22.71
2019-05-21T07:23:34.330Z,22.72
2019-05-21T07:26:06.186Z,22.78
2019-05-21T07:28:38.369Z,22.97
2019-05-21T07:31:10.318Z,23.22
2019-05-21T07:33:45.129Z,23.57
2019-05-21T07:36:16.795Z,23.94
2019-05-21T07:38:54.022Z,24.23
2019-05-21T07:41:22.466Z,24.51
2019-05-21T07:43:55.152Z,24.75
2019-05-21T07:46:27.008Z,24.97
2019-05-21T07:48:58.974Z,25.21
2019-05-21T07:51:30.720Z,25.41
2019-05-21T07:54:02.667Z,25.60
2019-05-21T07:56:34.767Z,25.66
2019-05-21T07:59:07.747Z,25.73
2019-05-21T08:01:39.978Z,25.69
2019-05-21T08:04:11.972Z,25.64
2019-05-21T08:06:44.178Z,25.66
2019-05-21T08:09:15.999Z,25.68
2019-05-21T08:11:47.867Z,25.62
2019-05-21T08:14:19.829Z,25.48
2019-05-21T08:16:52.001Z,25.44
2019-05-21T08:19:24.169Z,25.42
2019-05-21T08:21:56.117Z,25.56
2019-05-21T08:24:27.978Z,25.63
2019-05-21T08:26:59.938Z,25.75
2019-05-21T08:29:32.096Z,25.78
2019-05-21T08:32:04.182Z,25.87
2019-05-21T08:34:35.817Z,26.02
2019-05-21T08:37:07.683Z,26.23
2019-05-21T08:39:39.758Z,26.49
2019-05-21T08:42:11.728Z,26.77
2019-05-21T08:44:43.856Z,26.77
2019-05-21T08:47:15.759Z,26.92
2019-05-21T08:49:47.817Z,26.90
2019-05-21T08:52:19.679Z,26.82
2019-05-21T08:54:55.802Z,26.62
2019-05-21T08:57:25.861Z,26.43
2019-05-21T08:59:57.853Z,26.11
2019-05-21T09:02:29.580Z,26.11
2019-05-21T09:05:01.726Z,25.81
2019-05-21T09:07:33.811Z,25.81
2019-05-21T09:10:09.312Z,25.63
2019-05-21T09:12:41.116Z,25.46
2019-05-21T09:15:13.827Z,25.20
2019-05-21T09:17:45.448Z,24.97
2019-05-21T09:20:18.687Z,24.87
2019-05-21T09:22:50.284Z,24.78
2019-05-21T09:25:22.165Z,24.68
2019-05-21T09:27:54.026Z,24.65
2019-05-21T09:30:26.158Z,24.73
2019-05-21T09:32:57.941Z,24.78
2019-05-21T09:35:30.119Z,24.77
2019-05-21T09:38:01.750Z,24.74
2019-05-21T09:40:35.065Z,24.77
2019-05-21T09:43:07.024Z,24.82
2019-05-21T09:45:39.101Z,24.93
2019-05-21T09:48:10.957Z,25.13
2019-05-21T09:50:42.894Z,25.38
2019-05-21T09:53:14.776Z,25.69
2019-05-21T09:55:46.861Z,25.84
2019-05-21T09:58:20.544Z,26.07
2019-05-21T10:00:59.484Z,26.38
2019-05-21T10:03:38.292Z,26.50
2019-05-21T10:06:10.133Z,26.73
2019-05-21T10:08:42.521Z,26.85
2019-05-21T10:11:14.268Z,27.01
2019-05-21T10:13:46.093Z,27.28
2019-05-21T10:16:17.985Z,27.27
2019-05-21T10:18:49.847Z,27.30
2019-05-21T10:21:21.822Z,27.43
2019-05-21T10:23:53.998Z,27.44
2019-05-21T10:26:26.265Z,27.44
2019-05-21T10:28:58.116Z,27.32
2019-05-21T10:31:30.085Z,27.28
2019-05-21T10:34:02.441Z,27.26
2019-05-21T10:36:34.628Z,27.01
2019-05-21T10:39:08.010Z,26.88
2019-05-21T10:41:40.071Z,26.60
2019-05-21T10:44:12.052Z,26.21
2019-05-21T10:46:44.013Z,26.21
2019-05-21T10:49:16.066Z,26.09
2019-05-21T10:51:47.721Z,26.11
2019-05-21T10:54:19.394Z,26.19
2019-05-21T10:56:51.256Z,26.49
2019-05-21T10:59:23.533Z,26.49
2019-05-21T11:01:56.713Z,26.70
2019-05-21T11:04:36.364Z,26.99
2019-05-21T11:07:10.264Z,27.25
2019-05-21T11:09:43.608Z,27.61
2019-05-21T11:12:15.830Z,27.86
2019-05-21T11:14:47.467Z,28.23
2019-05-21T11:17:19.853Z,28.48
2019-05-21T11:19:51.922Z,28.84
2019-05-21T11:22:23.987Z,29.02
2019-05-21T11:24:56.039Z,29.17
2019-05-21T11:27:27.790Z,29.29
2019-05-21T11:30:00.624Z,29.29
2019-05-21T11:32:32.351Z,29.19
2019-05-21T11:35:05.901Z,29.08
2019-05-21T11:37:37.628Z,29.00
2019-05-21T11:40:10.170Z,28.96
2019-05-21T11:42:42.046Z,29.03
2019-05-21T11:45:29.442Z,29.09
2019-05-21T11:47:47.403Z,29.09
2019-05-21T11:50:19.398Z,29.07
2019-05-21T11:52:51.524Z,29.09
2019-05-21T11:55:23.302Z,29.05
2019-05-21T11:57:55.136Z,29.15
2019-05-21T12:00:28.501Z,29.28
2019-05-21T12:03:00.718Z,29.31
2019-05-21T12:05:32.891Z,29.43
2019-05-21T12:08:04.941Z,29.52
2019-05-21T12:10:37.225Z,29.38
2019-05-21T12:13:09.221Z,29.25
2019-05-21T12:15:41.146Z,29.14
2019-05-21T12:18:13.418Z,29.09
2019-05-21T12:20:48.230Z,28.93
2019-05-21T12:23:21.728Z,28.83
2019-05-21T12:25:53.606Z,28.74
2019-05-21T12:28:25.671Z,28.69
2019-05-21T12:30:57.623Z,28.69
2019-05-21T12:33:29.624Z,28.69
2019-05-21T12:36:01.665Z,28.71
2019-05-21T12:38:33.734Z,28.87
2019-05-21T12:41:05.879Z,28.97
2019-05-21T12:43:37.553Z,29.10
2019-05-21T12:46:09.413Z,29.20
2019-05-21T12:48:41.196Z,29.28
2019-05-21T12:51:14.574Z,29.27
2019-05-21T12:53:46.637Z,29.31
2019-05-21T12:56:18.596Z,29.28
2019-05-21T12:58:50.645Z,29.33
2019-05-21T13:01:23.547Z,29.32
2019-05-21T13:03:55.663Z,29.45
2019-05-21T13:06:27.572Z,29.59
2019-05-21T13:08:59.434Z,29.68
2019-05-21T13:11:32.628Z,29.75
2019-05-21T13:14:04.899Z,29.78
2019-05-21T13:16:36.660Z,29.88
2019-05-21T13:19:11.226Z,29.79
2019-05-21T13:21:42.025Z,29.78
2019-05-21T13:24:13.871Z,29.78
2019-05-21T13:26:45.779Z,29.76
2019-05-21T13:29:18.054Z,29.79
2019-05-21T13:31:50.111Z,29.84
2019-05-21T13:34:22.031Z,29.81
2019-05-21T13:36:54.014Z,29.71
2019-05-21T13:39:25.871Z,29.55
2019-05-21T13:41:58.648Z,29.45
2019-05-21T13:44:30.480Z,29.43
2019-05-21T13:47:02.630Z,29.61
2019-05-21T13:49:34.404Z,29.76
2019-05-21T13:52:06.604Z,30.07
2019-05-21T13:54:40.106Z,30.47
2019-05-21T13:57:12.361Z,30.84
2019-05-21T13:59:44.865Z,31.25
2019-05-21T14:02:18.724Z,31.55
2019-05-21T14:04:50.915Z,31.79
2019-05-21T14:07:23.590Z,31.89
2019-05-21T14:10:13.441Z,31.97
2019-05-21T14:12:29.290Z,31.97
2019-05-21T14:15:01.548Z,31.90
2019-05-21T14:17:33.676Z,31.86
2019-05-21T14:20:10.199Z,31.90
2019-05-21T14:22:42.107Z,31.85
2019-05-21T14:25:14.230Z,31.98
2019-05-21T14:27:45.936Z,31.81
2019-05-21T14:30:18.128Z,31.52
2019-05-21T14:32:50.300Z,31.29
2019-05-21T14:35:22.348Z,30.98
2019-05-21T14:37:54.211Z,30.85
2019-05-21T14:40:31.711Z,30.70
2019-05-21T14:43:00.830Z,30.60
2019-05-21T14:45:34.483Z,30.60
2019-05-21T14:48:06.652Z,30.60
2019-05-21T14:50:38.737Z,30.56
2019-05-21T14:53:10.842Z,30.12
2019-05-21T14:55:42.543Z,29.79
2019-05-21T14:58:14.526Z,29.58
2019-05-21T15:00:46.382Z,29.32
2019-05-21T15:03:25.400Z,29.02
2019-05-21T15:05:50.944Z,28.87
2019-05-21T15:08:23.411Z,29.14
2019-05-21T15:10:55.141Z,29.89
2019-05-21T15:13:27.224Z,30.50
2019-05-21T15:15:59.130Z,30.99
2019-05-21T15:18:31.660Z,31.39
2019-05-21T15:21:05.255Z,31.85
2019-05-21T15:23:37.316Z,32.45
2019-05-21T15:26:12.216Z,32.97
2019-05-21T15:28:45.258Z,33.34
2019-05-21T15:31:17.416Z,33.64
2019-05-21T15:33:49.480Z,33.99
2019-05-21T15:36:21.528Z,34.17
2019-05-21T15:38:53.328Z,34.32
2019-05-21T15:41:25.251Z,34.31
2019-05-21T15:43:57.023Z,33.75
2019-05-21T15:46:45.463Z,33.36
2019-05-21T15:49:03.313Z,33.10
2019-05-21T15:51:35.578Z,32.80
2019-05-21T15:54:07.783Z,32.67
2019-05-21T15:56:39.709Z,32.60
2019-05-21T15:59:11.357Z,32.55
2019-05-21T16:01:43.220Z,32.73
2019-05-21T16:04:16.620Z,32.97
2019-05-21T16:06:50.023Z,33.04
2019-05-21T16:09:21.862Z,32.74
2019-05-21T16:11:53.835Z,32.05
2019-05-21T16:14:25.792Z,31.04
2019-05-21T16:16:57.874Z,29.87
2019-05-21T16:19:30.072Z,28.92
2019-05-21T16:22:01.975Z,28.30
2019-05-21T16:24:33.946Z,27.79
2019-05-21T16:27:05.704Z,27.24
2019-05-21T16:29:38.958Z,26.97
2019-05-21T16:32:11.006Z,26.94
2019-05-21T16:34:43.037Z,27.12
2019-05-21T16:37:15.306Z,27.50
2019-05-21T16:39:46.974Z,27.73
2019-05-21T16:42:18.656Z,27.52
2019-05-21T16:44:50.790Z,27.13
2019-05-21T16:47:22.551Z,26.72
2019-05-21T16:49:54.919Z,26.28
2019-05-21T16:52:26.986Z,25.51
2019-05-21T16:55:00.897Z,25.51
2019-05-21T16:57:33.355Z,25.18
2019-05-21T17:00:09.486Z,24.86
2019-05-21T17:02:41.294Z,24.59
2019-05-21T17:05:14.192Z,24.34
2019-05-21T17:07:46.256Z,24.07
2019-05-21T17:10:19.820Z,23.82
2019-05-21T17:12:51.906Z,23.56
2019-05-21T17:15:24.073Z,23.33
2019-05-21T17:17:55.929Z,23.14
2019-05-21T17:20:27.812Z,22.95
2019-05-21T17:22:59.862Z,22.74
2019-05-21T17:25:31.920Z,22.58
2019-05-21T17:28:03.988Z,22.42
2019-05-21T17:30:36.246Z,22.26
2019-05-21T17:33:08.324Z,22.08
2019-05-21T17:35:39.967Z,21.94
2019-05-21T17:38:11.948Z,21.81
2019-05-21T17:40:44.419Z,21.66
2019-05-21T17:43:16.393Z,21.53
2019-05-21T17:45:48.548Z,21.43
2019-05-21T17:48:20.624Z,21.32
2019-05-21T17:50:53.521Z,21.21
2019-05-21T17:53:26.467Z,21.12
2019-05-21T17:55:58.350Z,21.01
2019-05-21T17:58:30.948Z,20.92
2019-05-21T18:01:07.546Z,20.82
2019-05-21T18:03:39.764Z,20.73
2019-05-21T18:06:14.016Z,20.65
2019-05-21T18:08:45.944Z,20.58
2019-05-21T18:11:18.304Z,20.50
2019-05-21T18:13:50.891Z,20.41
2019-05-21T18:16:22.712Z,20.36
2019-05-21T18:18:54.510Z,20.29
2019-05-21T18:21:26.881Z,20.23
2019-05-21T18:23:58.729Z,20.17
2019-05-21T18:26:30.606Z,20.10
2019-05-21T18:29:02.595Z,20.04
2019-05-21T18:31:34.524Z,20.00
2019-05-21T18:34:06.590Z,19.95
2019-05-21T18:36:38.656Z,19.87
2019-05-21T18:39:10.827Z,19.80
2019-05-21T18:41:42.672Z,19.76
2019-05-21T18:44:14.738Z,19.68
2019-05-21T18:46:48.315Z,19.63
2019-05-21T18:49:20.219Z,19.56
2019-05-21T18:51:52.176Z,19.51
2019-05-21T18:54:23.830Z,19.43
2019-05-21T18:56:55.799Z,19.37
2019-05-21T18:59:28.409Z,19.32
2019-05-21T19:02:00.391Z,19.30
2019-05-21T19:04:36.403Z,19.27
2019-05-21T19:07:11.535Z,19.23
2019-05-21T19:09:43.331Z,19.22
2019-05-21T19:12:15.994Z,19.18
2019-05-21T19:14:47.862Z,19.12
2019-05-21T19:17:34.327Z,19.08
2019-05-21T19:19:52.965Z,19.07
2019-05-21T19:22:27.551Z,19.00
2019-05-21T19:24:58.139Z,18.97
2019-05-21T19:27:30.202Z,18.94
2019-05-21T19:30:02.168Z,18.90
2019-05-21T19:32:34.127Z,18.87
2019-05-21T19:35:07.024Z,18.86
2019-05-21T19:37:38.974Z,18.82
2019-05-21T19:40:11.019Z,18.80
2019-05-21T19:42:54.341Z,18.76
2019-05-21T19:45:17.340Z,18.73
2019-05-21T19:47:49.076Z,18.69
2019-05-21T19:50:21.449Z,18.65
2019-05-21T19:52:53.521Z,18.63
2019-05-21T19:55:27.004Z,18.63
2019-05-21T19:57:58.976Z,18.64
2019-05-21T20:00:32.357Z,18.63
2019-05-21T20:03:04.653Z,18.61
2019-05-21T20:05:36.605Z,18.58
2019-05-21T20:08:08.568Z,18.54
2019-05-21T20:10:40.939Z,18.50
2019-05-21T20:13:12.797Z,18.49
2019-05-21T20:15:44.967Z,18.51
2019-05-21T20:18:17.439Z,18.55
2019-05-21T20:20:50.326Z,18.58
2019-05-21T20:23:22.289Z,18.61
2019-05-21T20:25:56.741Z,18.63
2019-05-21T20:28:28.778Z,18.64
2019-05-21T20:31:01.845Z,18.65
2019-05-21T20:33:35.391Z,18.65
2019-05-21T20:36:06.925Z,18.65
2019-05-21T20:38:40.102Z,18.67
2019-05-21T20:41:12.542Z,18.69
2019-05-21T20:43:58.231Z,18.72
2019-05-21T20:46:19.762Z,18.71
2019-05-21T20:48:52.886Z,18.70
2019-05-21T20:51:24.611Z,18.71
2019-05-21T20:53:56.608Z,18.72
2019-05-21T20:56:28.757Z,18.73
2019-05-21T20:59:00.825Z,18.76
2019-05-21T21:01:33.809Z,18.80
2019-05-21T21:04:05.985Z,18.82
2019-05-21T21:06:38.054Z,18.84
2019-05-21T21:09:10.666Z,18.87
2019-05-21T21:11:43.369Z,18.88
2019-05-21T21:14:18.284Z,18.91
2019-05-21T21:16:50.752Z,18.95
2019-05-21T21:19:22.773Z,18.97
2019-05-21T21:21:54.634Z,18.99
2019-05-21T21:24:27.799Z,19.01
2019-05-21T21:27:00.405Z,19.03
2019-05-21T21:29:32.674Z,19.07
2019-05-21T21:32:04.556Z,19.08
2019-05-21T21:34:36.906Z,19.10
2019-05-21T21:37:09.129Z,19.11
2019-05-21T21:39:42.365Z,19.12
2019-05-21T21:42:14.626Z,19.12
2019-05-21T21:44:46.843Z,19.13
2019-05-21T21:47:18.759Z,19.13
2019-05-21T21:49:52.356Z,19.11
2019-05-21T21:52:24.022Z,19.12
2019-05-21T21:54:56.403Z,19.12
2019-05-21T21:57:28.358Z,19.10
2019-05-21T22:00:00.130Z,19.09
2019-05-21T22:02:34.892Z,19.08
2019-05-21T22:05:09.157Z,19.07
2019-05-21T22:07:40.803Z,19.04
2019-05-21T22:10:12.969Z,18.99
2019-05-21T22:12:44.645Z,18.98
2019-05-21T22:15:16.810Z,18.93
2019-05-21T22:17:49.093Z,18.91
2019-05-21T22:20:22.042Z,18.90
2019-05-21T22:22:53.968Z,18.85
2019-05-21T22:25:26.190Z,18.82
2019-05-21T22:27:58.260Z,18.81
2019-05-21T22:30:30.022Z,18.78
2019-05-21T22:33:02.191Z,18.80
2019-05-21T22:35:34.167Z,18.78
2019-05-21T22:38:06.421Z,18.78
2019-05-21T22:40:53.626Z,18.77
2019-05-21T22:43:25.488Z,18.74
2019-05-21T22:45:57.885Z,18.71
2019-05-21T22:48:29.635Z,18.66
2019-05-21T22:51:01.698Z,18.64
2019-05-21T22:53:33.765Z,18.58
2019-05-21T22:56:05.717Z,18.56
2019-05-21T22:58:37.481Z,18.55
2019-05-21T23:01:11.066Z,18.58
2019-05-21T23:03:43.163Z,18.60
2019-05-21T23:06:15.015Z,18.62
2019-05-21T23:08:48.303Z,18.63
2019-05-21T23:11:23.047Z,18.66
2019-05-21T23:13:53.775Z,18.67
2019-05-21T23:16:27.472Z,18.66
2019-05-21T23:19:05.423Z,18.64
2019-05-21T23:21:42.616Z,18.63
2019-05-21T23:24:16.067Z,18.62
2019-05-21T23:26:48.201Z,18.60
2019-05-21T23:29:20.899Z,18.57
2019-05-21T23:31:52.753Z,18.56
2019-05-21T23:34:24.932Z,18.51
2019-05-21T23:36:57.931Z,18.51
2019-05-21T23:39:32.238Z,18.50
2019-05-21T23:42:05.508Z,18.50
2019-05-21T23:44:38.522Z,18.45
2019-05-21T23:47:15.274Z,18.43
2019-05-21T23:49:47.337Z,18.36
2019-05-21T23:52:19.420Z,18.33
2019-05-21T23:54:51.469Z,18.27
2019-05-21T23:57:27.646Z,18.23
2019-05-21T23:59:59.814Z,18.21
